sensor_id;sensor_type;location;lat;lon;timestamp;temperature;humidity
17815;DHT22;9031;50.974;11.330;2023-05-07T00:00:38;11.30;99.90
17815;DHT22;9031;50.974;11.330;2023-05-07T00:03:04;11.30;99.90
17815;DHT22;9031;50.974;11.330;2023-05-07T00:05:30;11.20;99.90
17815;DHT22;9031;50.974;11.330;2023-05-07T00:07:56;11.20;99.90
17815;DHT22;9031;50.974;11.330;2023-05-07T00:10:21;11.30;99.90
17815;DHT22;9031;50.974;11.330;2023-05-07T00:12:47;11.20;99.90
17815;DHT22;9031;50.974;11.330;2023-05-07T00:15:12;11.30;99.90
17815;DHT22;9031;50.974;11.330;2023-05-07T00:17:38;11.10;99.90
17815;DHT22;9031;50.974;11.330;2023-05-07T00:20:04;11.00;99.90
17815;DHT22;9031;50.974;11.330;2023-05-07T00:22:31;11.10;99.90
17815;DHT22;9031;50.974;11.330;2023-05-07T00:24:57;11.10;99.90
17815;DHT22;9031;50.974;11.330;2023-05-07T00:27:23;11.10;99.90
17815;DHT22;9031;50.974;11.330;2023-05-07T00:29:48;11.10;99.90
17815;DHT22;9031;50.974;11.330;2023-05-07T00:32:14;11.00;99.90
17815;DHT22;9031;50.974;11.330;2023-05-07T00:34:40;11.10;99.90
17815;DHT22;9031;50.974;11.330;2023-05-07T00:37:05;11.20;99.90
17815;DHT22;9031;50.974;11.330;2023-05-07T00:39:33;11.10;99.90
17815;DHT22;9031;50.974;11.330;2023-05-07T00:41:59;11.20;99.90
17815;DHT22;9031;50.974;11.330;2023-05-07T00:44:26;11.20;99.90
17815;DHT22;9031;50.974;11.330;2023-05-07T00:46:52;11.20;99.90
17815;DHT22;9031;50.974;11.330;2023-05-07T00:49:18;11.20;99.90
17815;DHT22;9031;50.974;11.330;2023-05-07T00:51:44;11.30;99.90
17815;DHT22;9031;50.974;11.330;2023-05-07T00:54:10;11.40;99.90
17815;DHT22;9031;50.974;11.330;2023-05-07T00:56:36;11.40;99.90
17815;DHT22;9031;50.974;11.330;2023-05-07T00:59:02;11.30;99.90
17815;DHT22;9031;50.974;11.330;2023-05-07T01:01:28;11.30;99.90
17815;DHT22;9031;50.974;11.330;2023-05-07T01:03:54;11.20;99.90
17815;DHT22;9031;50.974;11.330;2023-05-07T01:06:20;11.10;99.90
17815;DHT22;9031;50.974;11.330;2023-05-07T01:08:47;11.10;99.90
17815;DHT22;9031;50.974;11.330;2023-05-07T01:11:13;11.10;99.90
17815;DHT22;9031;50.974;11.330;2023-05-07T01:13:40;11.30;99.90
17815;DHT22;9031;50.974;11.330;2023-05-07T01:16:07;11.20;99.90
17815;DHT22;9031;50.974;11.330;2023-05-07T01:18:33;11.20;99.90
17815;DHT22;9031;50.974;11.330;2023-05-07T01:20:59;11.20;99.90
17815;DHT22;9031;50.974;11.330;2023-05-07T01:23:27;11.20;99.90
17815;DHT22;9031;50.974;11.330;2023-05-07T01:25:53;11.10;99.90
17815;DHT22;9031;50.974;11.330;2023-05-07T01:28:19;11.10;99.90
17815;DHT22;9031;50.974;11.330;2023-05-07T01:30:48;11.10;99.90
17815;DHT22;9031;50.974;11.330;2023-05-07T01:33:18;11.00;99.90
17815;DHT22;9031;50.974;11.330;2023-05-07T01:35:47;11.20;99.90
17815;DHT22;9031;50.974;11.330;2023-05-07T01:38:13;11.20;99.90
17815;DHT22;9031;50.974;11.330;2023-05-07T01:40:39;11.10;99.90
17815;DHT22;9031;50.974;11.330;2023-05-07T01:43:05;11.10;99.90
17815;DHT22;9031;50.974;11.330;2023-05-07T01:45:31;11.00;99.90
17815;DHT22;9031;50.974;11.330;2023-05-07T01:47:58;11.00;99.90
17815;DHT22;9031;50.974;11.330;2023-05-07T01:50:24;11.00;99.90
17815;DHT22;9031;50.974;11.330;2023-05-07T01:52:51;11.10;99.90
17815;DHT22;9031;50.974;11.330;2023-05-07T01:55:16;11.00;99.90
17815;DHT22;9031;50.974;11.330;2023-05-07T01:57:42;11.10;99.90
17815;DHT22;9031;50.974;11.330;2023-05-07T02:00:08;11.20;99.90
17815;DHT22;9031;50.974;11.330;2023-05-07T02:02:35;11.20;99.90
17815;DHT22;9031;50.974;11.330;2023-05-07T02:05:00;11.30;99.90
17815;DHT22;9031;50.974;11.330;2023-05-07T02:07:27;11.30;99.90
17815;DHT22;9031;50.974;11.330;2023-05-07T02:09:53;11.10;99.90
17815;DHT22;9031;50.974;11.330;2023-05-07T02:12:19;11.10;99.90
17815;DHT22;9031;50.974;11.330;2023-05-07T02:14:44;10.90;99.90
17815;DHT22;9031;50.974;11.330;2023-05-07T02:17:10;11.00;99.90
17815;DHT22;9031;50.974;11.330;2023-05-07T02:19:35;11.10;99.90
17815;DHT22;9031;50.974;11.330;2023-05-07T02:22:01;11.10;99.90
17815;DHT22;9031;50.974;11.330;2023-05-07T02:24:26;11.00;99.90
17815;DHT22;9031;50.974;11.330;2023-05-07T02:26:52;11.00;99.90
17815;DHT22;9031;50.974;11.330;2023-05-07T02:29:17;11.10;99.90
17815;DHT22;9031;50.974;11.330;2023-05-07T02:31:43;11.00;99.90
17815;DHT22;9031;50.974;11.330;2023-05-07T02:34:08;10.90;99.90
17815;DHT22;9031;50.974;11.330;2023-05-07T02:36:34;10.80;99.90
17815;DHT22;9031;50.974;11.330;2023-05-07T02:39:00;10.80;99.90
17815;DHT22;9031;50.974;11.330;2023-05-07T02:41:25;11.00;99.90
17815;DHT22;9031;50.974;11.330;2023-05-07T02:43:51;11.00;99.90
17815;DHT22;9031;50.974;11.330;2023-05-07T02:46:16;11.00;99.90
17815;DHT22;9031;50.974;11.330;2023-05-07T02:48:42;11.20;99.90
17815;DHT22;9031;50.974;11.330;2023-05-07T02:51:08;11.10;99.90
17815;DHT22;9031;50.974;11.330;2023-05-07T02:53:33;10.90;99.90
17815;DHT22;9031;50.974;11.330;2023-05-07T02:56:00;10.80;99.90
17815;DHT22;9031;50.974;11.330;2023-05-07T02:58:26;10.90;99.90
17815;DHT22;9031;50.974;11.330;2023-05-07T03:00:52;11.10;99.90
17815;DHT22;9031;50.974;11.330;2023-05-07T03:03:17;11.10;99.90
17815;DHT22;9031;50.974;11.330;2023-05-07T03:05:43;11.00;99.90
17815;DHT22;9031;50.974;11.330;2023-05-07T03:08:09;11.10;99.90
17815;DHT22;9031;50.974;11.330;2023-05-07T03:10:35;11.00;99.90
17815;DHT22;9031;50.974;11.330;2023-05-07T03:13:01;10.80;99.90
17815;DHT22;9031;50.974;11.330;2023-05-07T03:15:27;10.70;99.90
17815;DHT22;9031;50.974;11.330;2023-05-07T03:17:52;10.70;99.90
17815;DHT22;9031;50.974;11.330;2023-05-07T03:20:18;10.70;99.90
17815;DHT22;9031;50.974;11.330;2023-05-07T03:22:43;10.80;99.90
17815;DHT22;9031;50.974;11.330;2023-05-07T03:25:09;10.80;99.90
17815;DHT22;9031;50.974;11.330;2023-05-07T03:27:35;10.80;99.90
17815;DHT22;9031;50.974;11.330;2023-05-07T03:30:01;10.90;99.90
17815;DHT22;9031;50.974;11.330;2023-05-07T03:32:26;10.70;99.90
17815;DHT22;9031;50.974;11.330;2023-05-07T03:34:52;10.80;99.90
17815;DHT22;9031;50.974;11.330;2023-05-07T03:37:17;10.70;99.90
17815;DHT22;9031;50.974;11.330;2023-05-07T03:39:43;10.70;99.90
17815;DHT22;9031;50.974;11.330;2023-05-07T03:42:08;10.90;99.90
17815;DHT22;9031;50.974;11.330;2023-05-07T03:44:34;10.90;99.90
17815;DHT22;9031;50.974;11.330;2023-05-07T03:47:01;10.80;99.90
17815;DHT22;9031;50.974;11.330;2023-05-07T03:49:27;10.70;99.90
17815;DHT22;9031;50.974;11.330;2023-05-07T03:51:52;10.80;99.90
17815;DHT22;9031;50.974;11.330;2023-05-07T03:54:18;10.80;99.90
17815;DHT22;9031;50.974;11.330;2023-05-07T03:56:43;10.80;99.90
17815;DHT22;9031;50.974;11.330;2023-05-07T03:59:09;10.90;99.90
17815;DHT22;9031;50.974;11.330;2023-05-07T04:01:34;10.70;99.90
17815;DHT22;9031;50.974;11.330;2023-05-07T04:04:00;10.80;99.90
17815;DHT22;9031;50.974;11.330;2023-05-07T04:06:25;10.80;99.90
17815;DHT22;9031;50.974;11.330;2023-05-07T04:08:51;10.70;99.90
17815;DHT22;9031;50.974;11.330;2023-05-07T04:11:16;10.70;99.90
17815;DHT22;9031;50.974;11.330;2023-05-07T04:13:42;10.60;99.90
17815;DHT22;9031;50.974;11.330;2023-05-07T04:16:07;10.80;99.90
17815;DHT22;9031;50.974;11.330;2023-05-07T04:18:33;10.90;99.90
17815;DHT22;9031;50.974;11.330;2023-05-07T04:20:58;10.80;99.90
17815;DHT22;9031;50.974;11.330;2023-05-07T04:23:24;10.80;99.90
17815;DHT22;9031;50.974;11.330;2023-05-07T04:25:50;10.70;99.90
17815;DHT22;9031;50.974;11.330;2023-05-07T04:28:15;10.60;99.90
17815;DHT22;9031;50.974;11.330;2023-05-07T04:30:41;10.70;99.90
17815;DHT22;9031;50.974;11.330;2023-05-07T04:33:06;10.70;99.90
17815;DHT22;9031;50.974;11.330;2023-05-07T04:35:32;10.60;99.90
17815;DHT22;9031;50.974;11.330;2023-05-07T04:37:58;10.70;99.90
17815;DHT22;9031;50.974;11.330;2023-05-07T04:40:23;10.60;99.90
17815;DHT22;9031;50.974;11.330;2023-05-07T04:42:49;10.60;99.90
17815;DHT22;9031;50.974;11.330;2023-05-07T04:45:14;10.60;99.90
17815;DHT22;9031;50.974;11.330;2023-05-07T04:47:40;10.50;99.90
17815;DHT22;9031;50.974;11.330;2023-05-07T04:50:06;10.60;99.90
17815;DHT22;9031;50.974;11.330;2023-05-07T04:52:33;10.50;99.90
17815;DHT22;9031;50.974;11.330;2023-05-07T04:54:59;10.50;99.90
17815;DHT22;9031;50.974;11.330;2023-05-07T04:57:25;10.50;99.90
17815;DHT22;9031;50.974;11.330;2023-05-07T04:59:51;10.30;99.90
17815;DHT22;9031;50.974;11.330;2023-05-07T05:02:17;10.40;99.90
17815;DHT22;9031;50.974;11.330;2023-05-07T05:04:42;10.30;99.90
17815;DHT22;9031;50.974;11.330;2023-05-07T05:07:08;10.20;99.90
17815;DHT22;9031;50.974;11.330;2023-05-07T05:09:33;10.30;99.90
17815;DHT22;9031;50.974;11.330;2023-05-07T05:11:59;10.50;99.90
17815;DHT22;9031;50.974;11.330;2023-05-07T05:14:25;10.50;99.90
17815;DHT22;9031;50.974;11.330;2023-05-07T05:16:50;10.40;99.90
17815;DHT22;9031;50.974;11.330;2023-05-07T05:19:16;10.50;99.90
17815;DHT22;9031;50.974;11.330;2023-05-07T05:21:41;10.50;99.90
17815;DHT22;9031;50.974;11.330;2023-05-07T05:24:07;10.30;99.90
17815;DHT22;9031;50.974;11.330;2023-05-07T05:26:33;10.40;99.90
17815;DHT22;9031;50.974;11.330;2023-05-07T05:28:59;10.20;99.90
17815;DHT22;9031;50.974;11.330;2023-05-07T05:31:25;10.10;99.90
17815;DHT22;9031;50.974;11.330;2023-05-07T05:33:50;10.10;99.90
17815;DHT22;9031;50.974;11.330;2023-05-07T05:36:16;10.20;99.90
17815;DHT22;9031;50.974;11.330;2023-05-07T05:38:42;10.20;99.90
17815;DHT22;9031;50.974;11.330;2023-05-07T05:41:07;10.20;99.90
17815;DHT22;9031;50.974;11.330;2023-05-07T05:43:33;10.30;99.90
17815;DHT22;9031;50.974;11.330;2023-05-07T05:45:58;10.20;99.90
17815;DHT22;9031;50.974;11.330;2023-05-07T05:48:24;10.20;99.90
17815;DHT22;9031;50.974;11.330;2023-05-07T05:50:49;10.20;99.90
17815;DHT22;9031;50.974;11.330;2023-05-07T05:53:15;10.00;99.90
17815;DHT22;9031;50.974;11.330;2023-05-07T05:55:41;10.20;99.90
17815;DHT22;9031;50.974;11.330;2023-05-07T05:58:07;10.20;99.90
17815;DHT22;9031;50.974;11.330;2023-05-07T06:00:34;10.20;99.90
17815;DHT22;9031;50.974;11.330;2023-05-07T06:02:59;10.10;99.90
17815;DHT22;9031;50.974;11.330;2023-05-07T06:05:25;10.10;99.90
17815;DHT22;9031;50.974;11.330;2023-05-07T06:07:50;10.10;99.90
17815;DHT22;9031;50.974;11.330;2023-05-07T06:10:16;10.20;99.90
17815;DHT22;9031;50.974;11.330;2023-05-07T06:12:41;10.20;99.90
17815;DHT22;9031;50.974;11.330;2023-05-07T06:15:07;10.20;99.90
17815;DHT22;9031;50.974;11.330;2023-05-07T06:17:33;10.30;99.90
17815;DHT22;9031;50.974;11.330;2023-05-07T06:19:59;10.20;99.90
17815;DHT22;9031;50.974;11.330;2023-05-07T06:22:24;10.20;99.90
17815;DHT22;9031;50.974;11.330;2023-05-07T06:24:50;10.20;99.90
17815;DHT22;9031;50.974;11.330;2023-05-07T06:27:15;10.30;99.90
17815;DHT22;9031;50.974;11.330;2023-05-07T06:29:41;10.40;99.90
17815;DHT22;9031;50.974;11.330;2023-05-07T06:32:11;10.40;99.90
17815;DHT22;9031;50.974;11.330;2023-05-07T06:34:36;10.40;99.90
17815;DHT22;9031;50.974;11.330;2023-05-07T06:37:02;10.50;99.90
17815;DHT22;9031;50.974;11.330;2023-05-07T06:39:28;10.20;99.90
17815;DHT22;9031;50.974;11.330;2023-05-07T06:41:53;10.40;99.90
17815;DHT22;9031;50.974;11.330;2023-05-07T06:44:19;10.30;99.90
17815;DHT22;9031;50.974;11.330;2023-05-07T06:46:44;10.50;99.90
17815;DHT22;9031;50.974;11.330;2023-05-07T06:49:12;10.50;99.90
17815;DHT22;9031;50.974;11.330;2023-05-07T06:51:38;10.40;99.90
17815;DHT22;9031;50.974;11.330;2023-05-07T06:54:03;10.40;99.90
17815;DHT22;9031;50.974;11.330;2023-05-07T06:56:30;10.50;99.90
17815;DHT22;9031;50.974;11.330;2023-05-07T06:58:55;10.60;99.90
17815;DHT22;9031;50.974;11.330;2023-05-07T07:01:21;10.50;99.90
17815;DHT22;9031;50.974;11.330;2023-05-07T07:03:46;10.70;99.90
17815;DHT22;9031;50.974;11.330;2023-05-07T07:06:12;10.70;99.90
17815;DHT22;9031;50.974;11.330;2023-05-07T07:08:38;10.90;99.90
17815;DHT22;9031;50.974;11.330;2023-05-07T07:11:04;10.90;99.90
17815;DHT22;9031;50.974;11.330;2023-05-07T07:13:30;10.90;99.90
17815;DHT22;9031;50.974;11.330;2023-05-07T07:15:56;10.80;99.90
17815;DHT22;9031;50.974;11.330;2023-05-07T07:18:21;10.80;99.90
17815;DHT22;9031;50.974;11.330;2023-05-07T07:20:47;10.90;99.90
17815;DHT22;9031;50.974;11.330;2023-05-07T07:23:12;10.80;99.90
17815;DHT22;9031;50.974;11.330;2023-05-07T07:25:38;10.90;99.90
17815;DHT22;9031;50.974;11.330;2023-05-07T07:28:03;11.00;99.90
17815;DHT22;9031;50.974;11.330;2023-05-07T07:30:29;11.00;99.90
17815;DHT22;9031;50.974;11.330;2023-05-07T07:32:55;11.00;99.90
17815;DHT22;9031;50.974;11.330;2023-05-07T07:35:25;11.00;99.90
17815;DHT22;9031;50.974;11.330;2023-05-07T07:37:51;11.20;99.90
17815;DHT22;9031;50.974;11.330;2023-05-07T07:40:16;11.30;99.90
17815;DHT22;9031;50.974;11.330;2023-05-07T07:42:42;11.30;99.90
17815;DHT22;9031;50.974;11.330;2023-05-07T07:45:08;11.40;99.90
17815;DHT22;9031;50.974;11.330;2023-05-07T07:47:33;11.20;99.90
17815;DHT22;9031;50.974;11.330;2023-05-07T07:49:59;11.10;99.90
17815;DHT22;9031;50.974;11.330;2023-05-07T07:52:24;11.10;99.90
17815;DHT22;9031;50.974;11.330;2023-05-07T07:54:50;11.20;99.90
17815;DHT22;9031;50.974;11.330;2023-05-07T07:57:16;11.20;99.90
17815;DHT22;9031;50.974;11.330;2023-05-07T07:59:41;11.20;99.90
17815;DHT22;9031;50.974;11.330;2023-05-07T08:02:08;11.20;99.90
17815;DHT22;9031;50.974;11.330;2023-05-07T08:04:34;11.30;99.90
17815;DHT22;9031;50.974;11.330;2023-05-07T08:07:00;11.20;99.90
17815;DHT22;9031;50.974;11.330;2023-05-07T08:09:26;11.40;99.90
17815;DHT22;9031;50.974;11.330;2023-05-07T08:11:51;11.40;99.90
17815;DHT22;9031;50.974;11.330;2023-05-07T08:14:17;11.40;99.90
17815;DHT22;9031;50.974;11.330;2023-05-07T08:16:42;11.10;99.90
17815;DHT22;9031;50.974;11.330;2023-05-07T08:19:08;11.20;99.90
17815;DHT22;9031;50.974;11.330;2023-05-07T08:21:34;11.00;99.90
17815;DHT22;9031;50.974;11.330;2023-05-07T08:23:59;11.20;99.90
17815;DHT22;9031;50.974;11.330;2023-05-07T08:26:25;11.40;99.90
17815;DHT22;9031;50.974;11.330;2023-05-07T08:28:51;11.40;99.90
17815;DHT22;9031;50.974;11.330;2023-05-07T08:31:16;11.40;99.90
17815;DHT22;9031;50.974;11.330;2023-05-07T08:33:42;11.50;99.90
17815;DHT22;9031;50.974;11.330;2023-05-07T08:36:07;11.40;99.90
17815;DHT22;9031;50.974;11.330;2023-05-07T08:38:33;11.40;99.90
17815;DHT22;9031;50.974;11.330;2023-05-07T08:40:58;11.40;99.90
17815;DHT22;9031;50.974;11.330;2023-05-07T08:43:26;11.40;99.90
17815;DHT22;9031;50.974;11.330;2023-05-07T08:45:53;11.60;99.90
17815;DHT22;9031;50.974;11.330;2023-05-07T08:48:22;11.70;99.90
17815;DHT22;9031;50.974;11.330;2023-05-07T08:50:50;11.80;99.90
17815;DHT22;9031;50.974;11.330;2023-05-07T08:53:16;11.80;99.90
17815;DHT22;9031;50.974;11.330;2023-05-07T08:55:42;11.80;99.90
17815;DHT22;9031;50.974;11.330;2023-05-07T08:58:07;11.70;99.90
17815;DHT22;9031;50.974;11.330;2023-05-07T09:00:33;11.70;99.90
17815;DHT22;9031;50.974;11.330;2023-05-07T09:03:00;11.70;99.90
17815;DHT22;9031;50.974;11.330;2023-05-07T09:05:26;11.70;99.90
17815;DHT22;9031;50.974;11.330;2023-05-07T09:07:51;11.70;99.90
17815;DHT22;9031;50.974;11.330;2023-05-07T09:10:17;11.80;99.90
17815;DHT22;9031;50.974;11.330;2023-05-07T09:12:42;12.10;99.90
17815;DHT22;9031;50.974;11.330;2023-05-07T09:15:08;12.00;99.90
17815;DHT22;9031;50.974;11.330;2023-05-07T09:17:34;12.10;99.90
17815;DHT22;9031;50.974;11.330;2023-05-07T09:20:06;12.10;99.90
17815;DHT22;9031;50.974;11.330;2023-05-07T09:22:33;11.60;99.90
17815;DHT22;9031;50.974;11.330;2023-05-07T09:24:58;11.50;99.90
17815;DHT22;9031;50.974;11.330;2023-05-07T09:27:25;11.40;99.90
17815;DHT22;9031;50.974;11.330;2023-05-07T09:29:51;11.40;99.90
17815;DHT22;9031;50.974;11.330;2023-05-07T09:32:17;11.50;99.90
17815;DHT22;9031;50.974;11.330;2023-05-07T09:34:42;11.90;99.90
17815;DHT22;9031;50.974;11.330;2023-05-07T09:37:08;11.90;99.90
17815;DHT22;9031;50.974;11.330;2023-05-07T09:39:45;11.90;99.90
17815;DHT22;9031;50.974;11.330;2023-05-07T09:42:12;11.90;99.90
17815;DHT22;9031;50.974;11.330;2023-05-07T09:44:38;12.00;99.90
17815;DHT22;9031;50.974;11.330;2023-05-07T09:47:05;11.90;99.90
17815;DHT22;9031;50.974;11.330;2023-05-07T09:49:36;11.90;99.90
17815;DHT22;9031;50.974;11.330;2023-05-07T09:52:03;11.80;99.90
17815;DHT22;9031;50.974;11.330;2023-05-07T09:54:31;11.90;99.90
17815;DHT22;9031;50.974;11.330;2023-05-07T09:56:58;12.00;99.90
17815;DHT22;9031;50.974;11.330;2023-05-07T09:59:25;12.00;99.90
17815;DHT22;9031;50.974;11.330;2023-05-07T10:01:51;12.00;99.90
17815;DHT22;9031;50.974;11.330;2023-05-07T10:04:18;11.90;99.90
17815;DHT22;9031;50.974;11.330;2023-05-07T10:06:44;12.00;99.90
17815;DHT22;9031;50.974;11.330;2023-05-07T10:09:10;12.20;99.90
17815;DHT22;9031;50.974;11.330;2023-05-07T10:11:36;12.00;99.90
17815;DHT22;9031;50.974;11.330;2023-05-07T10:14:03;11.90;99.90
17815;DHT22;9031;50.974;11.330;2023-05-07T10:16:33;12.00;99.90
17815;DHT22;9031;50.974;11.330;2023-05-07T10:19:06;12.00;99.90
17815;DHT22;9031;50.974;11.330;2023-05-07T10:21:36;12.00;99.90
17815;DHT22;9031;50.974;11.330;2023-05-07T10:26:35;12.10;99.90
17815;DHT22;9031;50.974;11.330;2023-05-07T10:29:10;12.40;99.90
17815;DHT22;9031;50.974;11.330;2023-05-07T10:34:29;12.70;99.90
17815;DHT22;9031;50.974;11.330;2023-05-07T10:36:58;12.60;99.90
17815;DHT22;9031;50.974;11.330;2023-05-07T10:39:23;12.60;99.90
17815;DHT22;9031;50.974;11.330;2023-05-07T10:41:49;12.40;99.90
17815;DHT22;9031;50.974;11.330;2023-05-07T10:44:28;12.30;99.90
17815;DHT22;9031;50.974;11.330;2023-05-07T10:47:11;12.20;99.90
17815;DHT22;9031;50.974;11.330;2023-05-07T10:54:41;13.10;99.90
17815;DHT22;9031;50.974;11.330;2023-05-07T10:57:32;13.30;99.90
17815;DHT22;9031;50.974;11.330;2023-05-07T10:59:58;13.20;99.90
17815;DHT22;9031;50.974;11.330;2023-05-07T11:05:24;13.10;99.90
17815;DHT22;9031;50.974;11.330;2023-05-07T11:08:00;12.90;99.90
17815;DHT22;9031;50.974;11.330;2023-05-07T11:10:49;12.80;99.90
17815;DHT22;9031;50.974;11.330;2023-05-07T11:13:15;12.90;99.90
17815;DHT22;9031;50.974;11.330;2023-05-07T11:15:45;13.10;99.90
17815;DHT22;9031;50.974;11.330;2023-05-07T11:18:13;13.20;99.90
17815;DHT22;9031;50.974;11.330;2023-05-07T11:26:08;13.20;99.90
17815;DHT22;9031;50.974;11.330;2023-05-07T11:28:38;13.30;99.70
17815;DHT22;9031;50.974;11.330;2023-05-07T11:31:04;13.20;99.70
17815;DHT22;9031;50.974;11.330;2023-05-07T11:33:31;13.20;99.90
17815;DHT22;9031;50.974;11.330;2023-05-07T11:35:57;13.10;99.90
17815;DHT22;9031;50.974;11.330;2023-05-07T11:38:23;13.20;99.30
17815;DHT22;9031;50.974;11.330;2023-05-07T11:40:52;13.00;99.70
17815;DHT22;9031;50.974;11.330;2023-05-07T11:43:18;12.70;99.90
17815;DHT22;9031;50.974;11.330;2023-05-07T11:45:47;13.00;99.90
17815;DHT22;9031;50.974;11.330;2023-05-07T11:48:14;13.10;99.90
17815;DHT22;9031;50.974;11.330;2023-05-07T11:53:31;13.60;98.40
17815;DHT22;9031;50.974;11.330;2023-05-07T11:56:00;13.60;98.60
17815;DHT22;9031;50.974;11.330;2023-05-07T11:58:25;13.80;98.20
17815;DHT22;9031;50.974;11.330;2023-05-07T12:00:54;13.90;98.00
17815;DHT22;9031;50.974;11.330;2023-05-07T12:03:20;14.30;97.10
17815;DHT22;9031;50.974;11.330;2023-05-07T12:05:47;14.80;96.00
17815;DHT22;9031;50.974;11.330;2023-05-07T12:08:16;14.60;96.40
17815;DHT22;9031;50.974;11.330;2023-05-07T12:10:43;14.50;97.20
17815;DHT22;9031;50.974;11.330;2023-05-07T12:13:20;14.50;96.80
17815;DHT22;9031;50.974;11.330;2023-05-07T12:15:45;14.80;96.20
17815;DHT22;9031;50.974;11.330;2023-05-07T12:18:12;15.30;95.30
17815;DHT22;9031;50.974;11.330;2023-05-07T12:20:39;15.40;94.70
17815;DHT22;9031;50.974;11.330;2023-05-07T12:23:04;14.90;95.20
17815;DHT22;9031;50.974;11.330;2023-05-07T12:25:31;15.00;95.20
17815;DHT22;9031;50.974;11.330;2023-05-07T12:27:57;15.00;94.90
17815;DHT22;9031;50.974;11.330;2023-05-07T12:30:25;15.00;95.40
17815;DHT22;9031;50.974;11.330;2023-05-07T12:32:54;15.50;94.40
17815;DHT22;9031;50.974;11.330;2023-05-07T12:35:27;16.00;93.20
17815;DHT22;9031;50.974;11.330;2023-05-07T12:37:57;15.80;93.50
17815;DHT22;9031;50.974;11.330;2023-05-07T12:40:33;16.00;93.50
17815;DHT22;9031;50.974;11.330;2023-05-07T12:43:00;15.60;93.70
17815;DHT22;9031;50.974;11.330;2023-05-07T12:45:26;15.30;94.00
17815;DHT22;9031;50.974;11.330;2023-05-07T12:47:51;14.50;95.10
17815;DHT22;9031;50.974;11.330;2023-05-07T12:50:17;14.60;95.50
17815;DHT22;9031;50.974;11.330;2023-05-07T12:52:43;14.80;95.50
17815;DHT22;9031;50.974;11.330;2023-05-07T12:55:13;15.10;94.80
17815;DHT22;9031;50.974;11.330;2023-05-07T12:57:45;15.00;94.60
17815;DHT22;9031;50.974;11.330;2023-05-07T13:00:13;14.80;95.10
17815;DHT22;9031;50.974;11.330;2023-05-07T13:02:40;14.70;95.80
17815;DHT22;9031;50.974;11.330;2023-05-07T13:05:06;14.80;95.60
17815;DHT22;9031;50.974;11.330;2023-05-07T13:07:32;14.90;94.90
17815;DHT22;9031;50.974;11.330;2023-05-07T13:09:57;14.90;95.10
17815;DHT22;9031;50.974;11.330;2023-05-07T13:12:23;15.10;95.10
17815;DHT22;9031;50.974;11.330;2023-05-07T13:14:48;15.10;94.40
17815;DHT22;9031;50.974;11.330;2023-05-07T13:17:14;14.90;95.10
17815;DHT22;9031;50.974;11.330;2023-05-07T13:19:39;15.30;94.60
17815;DHT22;9031;50.974;11.330;2023-05-07T13:22:05;15.80;93.90
17815;DHT22;9031;50.974;11.330;2023-05-07T13:24:31;15.70;93.30
17815;DHT22;9031;50.974;11.330;2023-05-07T13:26:56;15.50;93.70
17815;DHT22;9031;50.974;11.330;2023-05-07T13:29:21;16.00;93.00
17815;DHT22;9031;50.974;11.330;2023-05-07T13:31:54;15.60;93.60
17815;DHT22;9031;50.974;11.330;2023-05-07T13:34:20;15.40;93.70
17815;DHT22;9031;50.974;11.330;2023-05-07T13:36:46;15.40;93.50
17815;DHT22;9031;50.974;11.330;2023-05-07T13:39:11;15.90;93.40
17815;DHT22;9031;50.974;11.330;2023-05-07T13:41:37;16.30;92.20
17815;DHT22;9031;50.974;11.330;2023-05-07T13:44:02;17.00;91.30
17815;DHT22;9031;50.974;11.330;2023-05-07T13:46:28;17.10;90.40
17815;DHT22;9031;50.974;11.330;2023-05-07T13:48:55;17.30;90.60
17815;DHT22;9031;50.974;11.330;2023-05-07T13:51:20;17.30;88.90
17815;DHT22;9031;50.974;11.330;2023-05-07T13:53:46;17.80;88.40
17815;DHT22;9031;50.974;11.330;2023-05-07T13:56:12;18.20;87.10
17815;DHT22;9031;50.974;11.330;2023-05-07T13:58:38;18.70;83.80
17815;DHT22;9031;50.974;11.330;2023-05-07T14:01:03;18.40;84.40
17815;DHT22;9031;50.974;11.330;2023-05-07T14:03:29;18.20;87.20
17815;DHT22;9031;50.974;11.330;2023-05-07T14:05:57;18.40;85.40
17815;DHT22;9031;50.974;11.330;2023-05-07T14:08:23;19.20;82.30
17815;DHT22;9031;50.974;11.330;2023-05-07T14:10:48;19.50;81.50
17815;DHT22;9031;50.974;11.330;2023-05-07T14:13:14;17.90;84.90
17815;DHT22;9031;50.974;11.330;2023-05-07T14:15:39;18.30;85.50
17815;DHT22;9031;50.974;11.330;2023-05-07T14:18:05;18.70;81.80
17815;DHT22;9031;50.974;11.330;2023-05-07T14:20:31;18.80;82.50
17815;DHT22;9031;50.974;11.330;2023-05-07T14:22:56;18.50;83.80
17815;DHT22;9031;50.974;11.330;2023-05-07T14:25:22;18.50;84.30
17815;DHT22;9031;50.974;11.330;2023-05-07T14:27:47;18.10;84.80
17815;DHT22;9031;50.974;11.330;2023-05-07T14:30:13;18.20;86.00
17815;DHT22;9031;50.974;11.330;2023-05-07T14:32:38;18.40;82.80
17815;DHT22;9031;50.974;11.330;2023-05-07T14:35:04;17.40;86.00
17815;DHT22;9031;50.974;11.330;2023-05-07T14:37:29;17.00;88.60
17815;DHT22;9031;50.974;11.330;2023-05-07T14:39:55;17.50;87.70
17815;DHT22;9031;50.974;11.330;2023-05-07T14:42:21;19.10;82.30
17815;DHT22;9031;50.974;11.330;2023-05-07T14:44:46;20.50;77.00
17815;DHT22;9031;50.974;11.330;2023-05-07T14:47:13;20.20;77.00
17815;DHT22;9031;50.974;11.330;2023-05-07T14:49:39;19.50;79.90
17815;DHT22;9031;50.974;11.330;2023-05-07T14:52:05;21.20;76.30
17815;DHT22;9031;50.974;11.330;2023-05-07T14:54:33;22.20;69.60
17815;DHT22;9031;50.974;11.330;2023-05-07T14:57:01;20.80;73.00
17815;DHT22;9031;50.974;11.330;2023-05-07T14:59:26;20.80;72.80
17815;DHT22;9031;50.974;11.330;2023-05-07T15:01:52;20.90;73.40
17815;DHT22;9031;50.974;11.330;2023-05-07T15:04:17;21.30;71.00
17815;DHT22;9031;50.974;11.330;2023-05-07T15:06:43;22.00;69.10
17815;DHT22;9031;50.974;11.330;2023-05-07T15:09:10;21.80;69.00
17815;DHT22;9031;50.974;11.330;2023-05-07T15:11:35;19.90;74.10
17815;DHT22;9031;50.974;11.330;2023-05-07T15:14:01;19.40;77.00
17815;DHT22;9031;50.974;11.330;2023-05-07T15:16:26;19.90;77.40
17815;DHT22;9031;50.974;11.330;2023-05-07T15:18:52;20.90;72.90
17815;DHT22;9031;50.974;11.330;2023-05-07T15:21:17;20.70;72.10
17815;DHT22;9031;50.974;11.330;2023-05-07T15:23:43;21.10;70.70
17815;DHT22;9031;50.974;11.330;2023-05-07T15:26:09;20.60;71.20
17815;DHT22;9031;50.974;11.330;2023-05-07T15:28:35;20.20;73.40
17815;DHT22;9031;50.974;11.330;2023-05-07T15:31:00;20.10;76.50
17815;DHT22;9031;50.974;11.330;2023-05-07T15:33:26;20.40;72.40
17815;DHT22;9031;50.974;11.330;2023-05-07T15:35:51;18.70;79.00
17815;DHT22;9031;50.974;11.330;2023-05-07T15:38:17;17.90;84.10
17815;DHT22;9031;50.974;11.330;2023-05-07T15:40:42;18.50;81.70
17815;DHT22;9031;50.974;11.330;2023-05-07T15:43:09;19.20;77.30
17815;DHT22;9031;50.974;11.330;2023-05-07T15:45:42;19.30;78.20